sensor_id;sensor_type;location;lat;lon;timestamp;P1;durP1;ratioP1;P2;durP2;ratioP2
6564;SDS011;3316;44.118;27.258;2023-06-05T00:01:17;7.97;;;2.50;;
6564;SDS011;3316;44.118;27.258;2023-06-05T00:03:42;4.07;;;2.37;;
6564;SDS011;3316;44.118;27.258;2023-06-05T00:06:08;4.67;;;2.47;;
6564;SDS011;3316;44.118;27.258;2023-06-05T00:08:34;4.87;;;2.60;;
6564;SDS011;3316;44.118;27.258;2023-06-05T00:11:00;3.37;;;2.50;;
6564;SDS011;3316;44.118;27.258;2023-06-05T00:13:25;3.53;;;2.30;;
6564;SDS011;3316;44.118;27.258;2023-06-05T00:15:51;6.67;;;2.23;;
6564;SDS011;3316;44.118;27.258;2023-06-05T00:18:17;6.00;;;2.20;;
6564;SDS011;3316;44.118;27.258;2023-06-05T00:20:43;2.47;;;1.90;;
6564;SDS011;3316;44.118;27.258;2023-06-05T00:23:09;4.13;;;2.60;;
6564;SDS011;3316;44.118;27.258;2023-06-05T00:25:36;6.27;;;2.03;;
6564;SDS011;3316;44.118;27.258;2023-06-05T00:28:02;5.37;;;2.57;;
6564;SDS011;3316;44.118;27.258;2023-06-05T00:30:27;4.87;;;2.27;;
6564;SDS011;3316;44.118;27.258;2023-06-05T00:32:53;10.33;;;2.40;;
6564;SDS011;3316;44.118;27.258;2023-06-05T00:35:18;4.60;;;1.97;;
6564;SDS011;3316;44.118;27.258;2023-06-05T00:37:44;5.53;;;2.20;;
6564;SDS011;3316;44.118;27.258;2023-06-05T00:40:11;3.23;;;2.10;;
6564;SDS011;3316;44.118;27.258;2023-06-05T00:42:37;5.60;;;2.10;;
6564;SDS011;3316;44.118;27.258;2023-06-05T00:45:03;4.40;;;2.27;;
6564;SDS011;3316;44.118;27.258;2023-06-05T00:47:29;3.87;;;2.30;;
6564;SDS011;3316;44.118;27.258;2023-06-05T00:49:54;4.93;;;2.27;;
6564;SDS011;3316;44.118;27.258;2023-06-05T00:52:21;3.97;;;2.20;;
6564;SDS011;3316;44.118;27.258;2023-06-05T00:54:47;3.67;;;2.50;;
6564;SDS011;3316;44.118;27.258;2023-06-05T00:57:12;4.73;;;2.00;;
6564;SDS011;3316;44.118;27.258;2023-06-05T00:59:38;5.47;;;2.33;;
6564;SDS011;3316;44.118;27.258;2023-06-05T01:02:05;8.87;;;2.20;;
6564;SDS011;3316;44.118;27.258;2023-06-05T01:04:31;5.10;;;2.17;;
6564;SDS011;3316;44.118;27.258;2023-06-05T01:06:58;4.70;;;2.13;;
6564;SDS011;3316;44.118;27.258;2023-06-05T01:09:26;6.23;;;2.10;;
6564;SDS011;3316;44.118;27.258;2023-06-05T01:11:59;6.20;;;2.10;;
6564;SDS011;3316;44.118;27.258;2023-06-05T01:14:31;5.10;;;2.20;;
6564;SDS011;3316;44.118;27.258;2023-06-05T01:17:00;5.17;;;2.47;;
6564;SDS011;3316;44.118;27.258;2023-06-05T01:19:27;4.53;;;2.20;;
6564;SDS011;3316;44.118;27.258;2023-06-05T01:21:58;4.20;;;2.47;;
6564;SDS011;3316;44.118;27.258;2023-06-05T01:24:24;4.40;;;2.17;;
6564;SDS011;3316;44.118;27.258;2023-06-05T01:32:28;3.57;;;2.30;;
6564;SDS011;3316;44.118;27.258;2023-06-05T01:34:54;5.20;;;2.50;;
6564;SDS011;3316;44.118;27.258;2023-06-05T01:37:21;4.57;;;2.27;;
6564;SDS011;3316;44.118;27.258;2023-06-05T01:39:50;7.87;;;2.40;;
6564;SDS011;3316;44.118;27.258;2023-06-05T01:42:18;5.23;;;2.27;;
6564;SDS011;3316;44.118;27.258;2023-06-05T01:44:44;4.07;;;2.40;;
6564;SDS011;3316;44.118;27.258;2023-06-05T01:47:10;9.23;;;2.37;;
6564;SDS011;3316;44.118;27.258;2023-06-05T01:49:36;3.60;;;1.80;;
6564;SDS011;3316;44.118;27.258;2023-06-05T01:52:01;3.60;;;2.13;;
6564;SDS011;3316;44.118;27.258;2023-06-05T01:54:27;6.07;;;2.10;;
6564;SDS011;3316;44.118;27.258;2023-06-05T01:56:53;9.03;;;2.57;;
6564;SDS011;3316;44.118;27.258;2023-06-05T01:59:20;2.47;;;2.10;;
6564;SDS011;3316;44.118;27.258;2023-06-05T02:01:46;7.10;;;2.30;;
6564;SDS011;3316;44.118;27.258;2023-06-05T02:04:12;3.10;;;2.37;;
6564;SDS011;3316;44.118;27.258;2023-06-05T02:06:41;5.97;;;2.20;;
6564;SDS011;3316;44.118;27.258;2023-06-05T02:09:07;5.43;;;2.10;;
6564;SDS011;3316;44.118;27.258;2023-06-05T02:11:38;13.50;;;2.60;;
6564;SDS011;3316;44.118;27.258;2023-06-05T02:14:04;3.70;;;2.30;;
6564;SDS011;3316;44.118;27.258;2023-06-05T02:16:31;2.57;;;2.37;;
6564;SDS011;3316;44.118;27.258;2023-06-05T02:18:57;4.43;;;2.30;;
6564;SDS011;3316;44.118;27.258;2023-06-05T02:21:28;10.00;;;3.57;;
6564;SDS011;3316;44.118;27.258;2023-06-05T02:24:00;7.13;;;2.33;;
6564;SDS011;3316;44.118;27.258;2023-06-05T02:26:26;3.17;;;2.10;;
6564;SDS011;3316;44.118;27.258;2023-06-05T02:28:52;4.80;;;2.17;;
6564;SDS011;3316;44.118;27.258;2023-06-05T02:31:23;4.50;;;2.20;;
6564;SDS011;3316;44.118;27.258;2023-06-05T02:33:53;3.10;;;2.50;;
6564;SDS011;3316;44.118;27.258;2023-06-05T02:36:20;5.33;;;2.40;;
6564;SDS011;3316;44.118;27.258;2023-06-05T02:38:47;4.87;;;2.43;;
6564;SDS011;3316;44.118;27.258;2023-06-05T02:41:19;3.30;;;2.43;;
6564;SDS011;3316;44.118;27.258;2023-06-05T02:43:46;7.30;;;2.83;;
6564;SDS011;3316;44.118;27.258;2023-06-05T02:46:11;11.17;;;2.87;;
6564;SDS011;3316;44.118;27.258;2023-06-05T02:48:37;3.30;;;2.73;;
6564;SDS011;3316;44.118;27.258;2023-06-05T02:51:02;6.83;;;2.30;;
6564;SDS011;3316;44.118;27.258;2023-06-05T02:53:28;7.10;;;2.93;;
6564;SDS011;3316;44.118;27.258;2023-06-05T02:55:54;4.57;;;3.47;;
6564;SDS011;3316;44.118;27.258;2023-06-05T02:58:20;6.10;;;3.60;;
6564;SDS011;3316;44.118;27.258;2023-06-05T03:00:46;4.20;;;2.57;;
6564;SDS011;3316;44.118;27.258;2023-06-05T03:03:13;5.13;;;2.53;;
6564;SDS011;3316;44.118;27.258;2023-06-05T03:05:42;4.13;;;2.27;;
6564;SDS011;3316;44.118;27.258;2023-06-05T03:08:09;4.93;;;2.67;;
6564;SDS011;3316;44.118;27.258;2023-06-05T03:10:35;3.87;;;2.50;;
6564;SDS011;3316;44.118;27.258;2023-06-05T03:13:01;5.50;;;3.00;;
6564;SDS011;3316;44.118;27.258;2023-06-05T03:15:27;11.20;;;3.27;;
6564;SDS011;3316;44.118;27.258;2023-06-05T03:17:52;8.97;;;3.47;;
6564;SDS011;3316;44.118;27.258;2023-06-05T03:20:18;9.97;;;3.33;;
6564;SDS011;3316;44.118;27.258;2023-06-05T03:22:44;11.63;;;2.80;;
6564;SDS011;3316;44.118;27.258;2023-06-05T03:25:10;5.13;;;2.93;;
6564;SDS011;3316;44.118;27.258;2023-06-05T03:27:35;10.00;;;2.90;;
6564;SDS011;3316;44.118;27.258;2023-06-05T03:30:01;9.37;;;2.73;;
6564;SDS011;3316;44.118;27.258;2023-06-05T03:32:27;4.50;;;2.50;;
6564;SDS011;3316;44.118;27.258;2023-06-05T03:34:53;8.73;;;2.60;;
6564;SDS011;3316;44.118;27.258;2023-06-05T03:37:18;6.30;;;2.90;;
6564;SDS011;3316;44.118;27.258;2023-06-05T03:39:43;10.87;;;2.87;;
6564;SDS011;3316;44.118;27.258;2023-06-05T03:42:09;8.60;;;2.53;;
6564;SDS011;3316;44.118;27.258;2023-06-05T03:44:36;8.00;;;3.38;;
6564;SDS011;3316;44.118;27.258;2023-06-05T03:47:02;6.95;;;2.88;;
6564;SDS011;3316;44.118;27.258;2023-06-05T03:49:28;5.57;;;2.38;;
6564;SDS011;3316;44.118;27.258;2023-06-05T03:51:54;6.07;;;2.28;;
6564;SDS011;3316;44.118;27.258;2023-06-05T03:54:26;6.38;;;2.85;;
6564;SDS011;3316;44.118;27.258;2023-06-05T03:56:52;10.35;;;2.97;;
6564;SDS011;3316;44.118;27.258;2023-06-05T03:59:22;6.13;;;3.05;;
6564;SDS011;3316;44.118;27.258;2023-06-05T04:01:51;11.25;;;3.03;;
6564;SDS011;3316;44.118;27.258;2023-06-05T04:04:16;6.65;;;2.60;;
6564;SDS011;3316;44.118;27.258;2023-06-05T04:06:42;8.20;;;2.90;;
6564;SDS011;3316;44.118;27.258;2023-06-05T04:09:08;6.20;;;2.70;;
6564;SDS011;3316;44.118;27.258;2023-06-05T04:11:40;12.32;;;6.10;;
6564;SDS011;3316;44.118;27.258;2023-06-05T04:14:10;10.52;;;4.25;;
6564;SDS011;3316;44.118;27.258;2023-06-05T04:16:36;15.93;;;3.63;;
6564;SDS011;3316;44.118;27.258;2023-06-05T04:19:10;6.95;;;3.00;;
6564;SDS011;3316;44.118;27.258;2023-06-05T04:21:39;12.40;;;4.47;;
6564;SDS011;3316;44.118;27.258;2023-06-05T04:24:06;8.18;;;3.40;;
6564;SDS011;3316;44.118;27.258;2023-06-05T04:26:35;6.28;;;3.20;;
6564;SDS011;3316;44.118;27.258;2023-06-05T04:29:06;9.63;;;3.03;;
6564;SDS011;3316;44.118;27.258;2023-06-05T04:31:38;5.32;;;2.70;;
6564;SDS011;3316;44.118;27.258;2023-06-05T04:34:06;8.57;;;2.97;;
6564;SDS011;3316;44.118;27.258;2023-06-05T04:36:32;6.25;;;2.70;;
6564;SDS011;3316;44.118;27.258;2023-06-05T04:38:59;6.43;;;2.60;;
6564;SDS011;3316;44.118;27.258;2023-06-05T04:41:26;5.50;;;2.40;;
6564;SDS011;3316;44.118;27.258;2023-06-05T04:43:55;17.65;;;8.50;;
6564;SDS011;3316;44.118;27.258;2023-06-05T04:46:22;11.70;;;4.80;;
6564;SDS011;3316;44.118;27.258;2023-06-05T04:48:48;7.55;;;3.00;;
6564;SDS011;3316;44.118;27.258;2023-06-05T04:51:14;16.40;;;4.80;;
6564;SDS011;3316;44.118;27.258;2023-06-05T04:53:39;13.68;;;5.07;;
6564;SDS011;3316;44.118;27.258;2023-06-05T04:56:07;6.38;;;2.75;;
6564;SDS011;3316;44.118;27.258;2023-06-05T04:58:32;6.57;;;2.92;;
6564;SDS011;3316;44.118;27.258;2023-06-05T05:00:58;8.13;;;2.70;;
6564;SDS011;3316;44.118;27.258;2023-06-05T05:03:30;6.40;;;3.15;;
6564;SDS011;3316;44.118;27.258;2023-06-05T05:05:56;5.82;;;2.85;;
6564;SDS011;3316;44.118;27.258;2023-06-05T05:08:21;11.10;;;3.00;;
6564;SDS011;3316;44.118;27.258;2023-06-05T05:10:47;5.13;;;3.42;;
6564;SDS011;3316;44.118;27.258;2023-06-05T05:13:12;4.10;;;3.10;;
6564;SDS011;3316;44.118;27.258;2023-06-05T05:15:38;9.57;;;2.83;;
6564;SDS011;3316;44.118;27.258;2023-06-05T05:18:04;5.53;;;3.00;;
6564;SDS011;3316;44.118;27.258;2023-06-05T05:20:29;11.93;;;3.65;;
6564;SDS011;3316;44.118;27.258;2023-06-05T05:22:57;7.95;;;3.20;;
6564;SDS011;3316;44.118;27.258;2023-06-05T05:25:24;12.77;;;3.13;;
6564;SDS011;3316;44.118;27.258;2023-06-05T05:27:50;11.35;;;3.08;;
6564;SDS011;3316;44.118;27.258;2023-06-05T05:30:16;5.90;;;2.85;;
6564;SDS011;3316;44.118;27.258;2023-06-05T05:32:41;8.70;;;3.55;;
6564;SDS011;3316;44.118;27.258;2023-06-05T05:35:07;5.38;;;2.70;;
6564;SDS011;3316;44.118;27.258;2023-06-05T05:37:33;8.15;;;2.70;;
6564;SDS011;3316;44.118;27.258;2023-06-05T05:39:58;5.70;;;2.78;;
6564;SDS011;3316;44.118;27.258;2023-06-05T05:42:23;6.40;;;3.22;;
6564;SDS011;3316;44.118;27.258;2023-06-05T05:44:49;5.22;;;2.65;;
6564;SDS011;3316;44.118;27.258;2023-06-05T05:47:14;8.15;;;2.97;;
6564;SDS011;3316;44.118;27.258;2023-06-05T05:49:40;7.00;;;3.13;;
6564;SDS011;3316;44.118;27.258;2023-06-05T05:52:05;6.15;;;2.90;;
6564;SDS011;3316;44.118;27.258;2023-06-05T05:54:31;5.93;;;2.70;;
6564;SDS011;3316;44.118;27.258;2023-06-05T05:56:56;4.47;;;2.97;;
6564;SDS011;3316;44.118;27.258;2023-06-05T05:59:22;8.57;;;2.72;;
6564;SDS011;3316;44.118;27.258;2023-06-05T06:01:48;8.00;;;2.60;;
6564;SDS011;3316;44.118;27.258;2023-06-05T06:04:17;6.00;;;2.70;;
6564;SDS011;3316;44.118;27.258;2023-06-05T06:06:43;14.25;;;2.58;;
6564;SDS011;3316;44.118;27.258;2023-06-05T06:09:12;5.88;;;2.88;;
6564;SDS011;3316;44.118;27.258;2023-06-05T06:11:38;10.50;;;3.50;;
6564;SDS011;3316;44.118;27.258;2023-06-05T06:14:04;4.97;;;2.47;;
6564;SDS011;3316;44.118;27.258;2023-06-05T06:16:30;3.67;;;1.83;;
6564;SDS011;3316;44.118;27.258;2023-06-05T06:18:55;4.15;;;2.63;;
6564;SDS011;3316;44.118;27.258;2023-06-05T06:21:21;4.82;;;2.30;;
6564;SDS011;3316;44.118;27.258;2023-06-05T06:23:46;4.07;;;2.85;;
6564;SDS011;3316;44.118;27.258;2023-06-05T06:26:12;4.60;;;2.28;;
6564;SDS011;3316;44.118;27.258;2023-06-05T06:28:39;8.48;;;2.33;;
6564;SDS011;3316;44.118;27.258;2023-06-05T06:31:05;4.13;;;2.20;;
6564;SDS011;3316;44.118;27.258;2023-06-05T06:33:31;4.90;;;2.50;;
6564;SDS011;3316;44.118;27.258;2023-06-05T06:35:56;6.40;;;2.25;;
6564;SDS011;3316;44.118;27.258;2023-06-05T06:38:23;4.80;;;2.40;;
6564;SDS011;3316;44.118;27.258;2023-06-05T06:40:55;4.47;;;2.20;;
6564;SDS011;3316;44.118;27.258;2023-06-05T06:43:21;4.85;;;2.70;;
6564;SDS011;3316;44.118;27.258;2023-06-05T06:45:47;7.85;;;2.40;;
6564;SDS011;3316;44.118;27.258;2023-06-05T06:48:14;6.32;;;2.10;;
6564;SDS011;3316;44.118;27.258;2023-06-05T06:50:41;7.38;;;2.25;;
6564;SDS011;3316;44.118;27.258;2023-06-05T06:53:07;4.28;;;1.75;;
6564;SDS011;3316;44.118;27.258;2023-06-05T06:55:33;4.13;;;2.10;;
6564;SDS011;3316;44.118;27.258;2023-06-05T06:57:58;3.83;;;2.10;;
6564;SDS011;3316;44.118;27.258;2023-06-05T07:00:24;2.53;;;2.20;;
6564;SDS011;3316;44.118;27.258;2023-06-05T07:02:49;3.95;;;2.42;;
6564;SDS011;3316;44.118;27.258;2023-06-05T07:05:15;7.00;;;2.20;;
6564;SDS011;3316;44.118;27.258;2023-06-05T07:07:40;9.35;;;1.95;;
6564;SDS011;3316;44.118;27.258;2023-06-05T07:10:06;7.38;;;2.50;;
6564;SDS011;3316;44.118;27.258;2023-06-05T07:12:31;4.20;;;2.28;;
6564;SDS011;3316;44.118;27.258;2023-06-05T07:14:57;7.35;;;2.45;;
6564;SDS011;3316;44.118;27.258;2023-06-05T07:17:22;4.65;;;2.40;;
6564;SDS011;3316;44.118;27.258;2023-06-05T07:19:48;4.53;;;2.88;;
6564;SDS011;3316;44.118;27.258;2023-06-05T07:22:13;6.15;;;2.28;;
6564;SDS011;3316;44.118;27.258;2023-06-05T07:24:38;2.42;;;2.00;;
6564;SDS011;3316;44.118;27.258;2023-06-05T07:27:05;3.00;;;2.05;;
6564;SDS011;3316;44.118;27.258;2023-06-05T07:29:30;3.15;;;1.98;;
6564;SDS011;3316;44.118;27.258;2023-06-05T07:31:57;5.68;;;2.53;;
6564;SDS011;3316;44.118;27.258;2023-06-05T07:34:24;5.13;;;1.90;;
6564;SDS011;3316;44.118;27.258;2023-06-05T07:36:50;4.80;;;2.20;;
6564;SDS011;3316;44.118;27.258;2023-06-05T07:39:16;4.53;;;1.83;;
6564;SDS011;3316;44.118;27.258;2023-06-05T07:41:43;4.30;;;1.80;;
6564;SDS011;3316;44.118;27.258;2023-06-05T07:44:12;5.40;;;2.28;;
6564;SDS011;3316;44.118;27.258;2023-06-05T07:46:39;4.93;;;2.10;;
6564;SDS011;3316;44.118;27.258;2023-06-05T07:49:05;7.22;;;2.28;;
6564;SDS011;3316;44.118;27.258;2023-06-05T07:51:31;4.38;;;2.30;;
6564;SDS011;3316;44.118;27.258;2023-06-05T07:54:01;7.13;;;2.67;;
6564;SDS011;3316;44.118;27.258;2023-06-05T07:56:28;4.10;;;2.13;;
6564;SDS011;3316;44.118;27.258;2023-06-05T07:58:53;4.03;;;2.10;;
6564;SDS011;3316;44.118;27.258;2023-06-05T08:01:19;2.90;;;2.40;;
6564;SDS011;3316;44.118;27.258;2023-06-05T08:03:46;6.80;;;2.47;;
6564;SDS011;3316;44.118;27.258;2023-06-05T08:06:11;3.40;;;1.92;;
6564;SDS011;3316;44.118;27.258;2023-06-05T08:08:37;2.50;;;2.08;;
6564;SDS011;3316;44.118;27.258;2023-06-05T08:11:02;3.83;;;1.75;;
6564;SDS011;3316;44.118;27.258;2023-06-05T08:13:28;3.00;;;2.10;;
6564;SDS011;3316;44.118;27.258;2023-06-05T08:15:54;3.20;;;2.13;;
6564;SDS011;3316;44.118;27.258;2023-06-05T08:18:20;2.90;;;1.73;;
6564;SDS011;3316;44.118;27.258;2023-06-05T08:20:46;4.47;;;2.22;;
6564;SDS011;3316;44.118;27.258;2023-06-05T08:23:11;6.82;;;2.30;;
6564;SDS011;3316;44.118;27.258;2023-06-05T08:25:37;5.68;;;2.03;;
6564;SDS011;3316;44.118;27.258;2023-06-05T08:28:03;5.10;;;2.30;;
6564;SDS011;3316;44.118;27.258;2023-06-05T08:30:28;2.42;;;2.05;;
6564;SDS011;3316;44.118;27.258;2023-06-05T08:32:54;3.42;;;2.25;;
6564;SDS011;3316;44.118;27.258;2023-06-05T08:35:19;4.85;;;2.20;;
6564;SDS011;3316;44.118;27.258;2023-06-05T08:37:45;3.50;;;1.95;;
6564;SDS011;3316;44.118;27.258;2023-06-05T08:40:11;4.00;;;2.15;;
6564;SDS011;3316;44.118;27.258;2023-06-05T08:42:37;2.67;;;2.22;;
6564;SDS011;3316;44.118;27.258;2023-06-05T08:45:06;7.72;;;2.50;;
6564;SDS011;3316;44.118;27.258;2023-06-05T08:47:35;8.73;;;2.15;;
6564;SDS011;3316;44.118;27.258;2023-06-05T08:50:04;3.53;;;2.33;;
6564;SDS011;3316;44.118;27.258;2023-06-05T08:52:32;6.00;;;2.50;;
6564;SDS011;3316;44.118;27.258;2023-06-05T08:55:00;4.53;;;2.25;;
6564;SDS011;3316;44.118;27.258;2023-06-05T08:57:28;5.43;;;2.55;;
6564;SDS011;3316;44.118;27.258;2023-06-05T08:59:54;2.40;;;2.05;;
6564;SDS011;3316;44.118;27.258;2023-06-05T09:02:20;4.28;;;2.13;;
6564;SDS011;3316;44.118;27.258;2023-06-05T09:04:46;5.13;;;2.42;;
6564;SDS011;3316;44.118;27.258;2023-06-05T09:07:12;3.33;;;2.20;;
6564;SDS011;3316;44.118;27.258;2023-06-05T09:09:37;4.15;;;2.33;;
6564;SDS011;3316;44.118;27.258;2023-06-05T09:12:05;6.63;;;1.90;;
6564;SDS011;3316;44.118;27.258;2023-06-05T09:14:34;4.47;;;2.53;;
6564;SDS011;3316;44.118;27.258;2023-06-05T09:17:01;3.22;;;1.92;;
6564;SDS011;3316;44.118;27.258;2023-06-05T09:19:37;2.38;;;1.80;;
6564;SDS011;3316;44.118;27.258;2023-06-05T09:22:06;3.53;;;2.28;;
6564;SDS011;3316;44.118;27.258;2023-06-05T09:24:32;2.90;;;2.20;;
6564;SDS011;3316;44.118;27.258;2023-06-05T09:29:33;2.83;;;2.05;;
6564;SDS011;3316;44.118;27.258;2023-06-05T09:32:03;6.20;;;2.42;;
6564;SDS011;3316;44.118;27.258;2023-06-05T09:34:38;6.43;;;2.58;;
6564;SDS011;3316;44.118;27.258;2023-06-05T09:37:05;7.75;;;2.42;;
6564;SDS011;3316;44.118;27.258;2023-06-05T09:39:33;7.80;;;2.40;;
6564;SDS011;3316;44.118;27.258;2023-06-05T09:42:00;4.80;;;2.83;;
6564;SDS011;3316;44.118;27.258;2023-06-05T09:44:27;7.55;;;2.20;;
6564;SDS011;3316;44.118;27.258;2023-06-05T09:49:45;3.10;;;1.70;;
6564;SDS011;3316;44.118;27.258;2023-06-05T09:52:09;2.83;;;2.00;;
6564;SDS011;3316;44.118;27.258;2023-06-05T09:54:37;6.88;;;2.22;;
6564;SDS011;3316;44.118;27.258;2023-06-05T09:57:05;5.18;;;1.90;;
6564;SDS011;3316;44.118;27.258;2023-06-05T09:59:32;6.05;;;2.20;;
6564;SDS011;3316;44.118;27.258;2023-06-05T10:02:02;11.25;;;1.95;;
6564;SDS011;3316;44.118;27.258;2023-06-05T10:04:29;3.05;;;1.70;;
6564;SDS011;3316;44.118;27.258;2023-06-05T10:07:01;2.15;;;1.95;;
6564;SDS011;3316;44.118;27.258;2023-06-05T10:09:27;2.00;;;1.58;;
6564;SDS011;3316;44.118;27.258;2023-06-05T10:11:55;2.55;;;1.83;;
6564;SDS011;3316;44.118;27.258;2023-06-05T10:14:22;2.42;;;1.70;;
6564;SDS011;3316;44.118;27.258;2023-06-05T10:16:51;2.63;;;1.83;;
6564;SDS011;3316;44.118;27.258;2023-06-05T10:19:18;2.97;;;1.67;;
6564;SDS011;3316;44.118;27.258;2023-06-05T10:21:48;4.18;;;1.75;;
6564;SDS011;3316;44.118;27.258;2023-06-05T10:24:19;3.03;;;2.30;;
6564;SDS011;3316;44.118;27.258;2023-06-05T10:32:00;2.25;;;1.83;;
6564;SDS011;3316;44.118;27.258;2023-06-05T10:34:41;11.77;;;2.78;;
6564;SDS011;3316;44.118;27.258;2023-06-05T10:37:30;4.15;;;1.88;;
6564;SDS011;3316;44.118;27.258;2023-06-05T10:40:04;3.17;;;1.83;;
6564;SDS011;3316;44.118;27.258;2023-06-05T10:42:31;3.10;;;2.00;;
6564;SDS011;3316;44.118;27.258;2023-06-05T10:44:58;5.10;;;2.08;;
6564;SDS011;3316;44.118;27.258;2023-06-05T10:52:47;3.38;;;2.05;;
6564;SDS011;3316;44.118;27.258;2023-06-05T10:55:16;3.22;;;2.05;;
6564;SDS011;3316;44.118;27.258;2023-06-05T11:00:26;4.40;;;1.80;;
6564;SDS011;3316;44.118;27.258;2023-06-05T11:02:53;2.17;;;1.75;;
6564;SDS011;3316;44.118;27.258;2023-06-05T11:05:19;3.65;;;1.90;;
6564;SDS011;3316;44.118;27.258;2023-06-05T11:07:45;3.53;;;1.60;;
6564;SDS011;3316;44.118;27.258;2023-06-05T11:10:12;1.67;;;1.55;;
6564;SDS011;3316;44.118;27.258;2023-06-05T11:15:16;4.65;;;2.00;;
6564;SDS011;3316;44.118;27.258;2023-06-05T11:17:47;2.95;;;2.22;;
6564;SDS011;3316;44.118;27.258;2023-06-05T11:30:25;2.85;;;1.75;;
6564;SDS011;3316;44.118;27.258;2023-06-05T11:32:57;1.55;;;1.35;;
6564;SDS011;3316;44.118;27.258;2023-06-05T11:35:31;1.92;;;1.48;;
6564;SDS011;3316;44.118;27.258;2023-06-05T11:40:39;1.85;;;1.70;;
6564;SDS011;3316;44.118;27.258;2023-06-05T11:43:06;3.28;;;1.70;;
6564;SDS011;3316;44.118;27.258;2023-06-05T11:45:33;2.22;;;1.50;;
6564;SDS011;3316;44.118;27.258;2023-06-05T11:48:07;3.03;;;1.70;;
6564;SDS011;3316;44.118;27.258;2023-06-05T11:50:37;3.65;;;1.23;;
6564;SDS011;3316;44.118;27.258;2023-06-05T11:53:06;2.88;;;1.60;;
6564;SDS011;3316;44.118;27.258;2023-06-05T11:55:36;2.13;;;1.70;;
6564;SDS011;3316;44.118;27.258;2023-06-05T11:58:20;3.28;;;1.58;;
6564;SDS011;3316;44.118;27.258;2023-06-05T12:00:49;5.43;;;1.75;;
6564;SDS011;3316;44.118;27.258;2023-06-05T12:03:19;3.35;;;1.50;;
6564;SDS011;3316;44.118;27.258;2023-06-05T12:05:47;4.50;;;1.52;;
6564;SDS011;3316;44.118;27.258;2023-06-05T12:08:24;4.28;;;1.70;;
6564;SDS011;3316;44.118;27.258;2023-06-05T12:10:51;2.92;;;1.67;;
6564;SDS011;3316;44.118;27.258;2023-06-05T12:13:17;4.68;;;2.58;;
6564;SDS011;3316;44.118;27.258;2023-06-05T12:15:43;10.02;;;2.35;;
6564;SDS011;3316;44.118;27.258;2023-06-05T12:18:31;3.60;;;1.98;;
6564;SDS011;3316;44.118;27.258;2023-06-05T12:21:01;2.65;;;1.92;;
6564;SDS011;3316;44.118;27.258;2023-06-05T12:23:28;4.32;;;2.33;;
6564;SDS011;3316;44.118;27.258;2023-06-05T12:26:00;2.28;;;1.67;;
6564;SDS011;3316;44.118;27.258;2023-06-05T12:28:28;9.52;;;1.88;;
6564;SDS011;3316;44.118;27.258;2023-06-05T12:30:57;4.45;;;1.88;;
6564;SDS011;3316;44.118;27.258;2023-06-05T12:33:23;9.07;;;2.28;;
6564;SDS011;3316;44.118;27.258;2023-06-05T12:36:07;1.40;;;1.30;;
6564;SDS011;3316;44.118;27.258;2023-06-05T12:38:37;6.75;;;2.33;;
6564;SDS011;3316;44.118;27.258;2023-06-05T12:41:03;2.60;;;1.73;;
6564;SDS011;3316;44.118;27.258;2023-06-05T12:43:31;6.60;;;2.33;;
6564;SDS011;3316;44.118;27.258;2023-06-05T12:45:57;7.53;;;2.63;;
6564;SDS011;3316;44.118;27.258;2023-06-05T12:48:23;4.05;;;1.83;;
6564;SDS011;3316;44.118;27.258;2023-06-05T12:50:49;2.45;;;1.67;;
6564;SDS011;3316;44.118;27.258;2023-06-05T12:53:15;2.33;;;1.70;;
6564;SDS011;3316;44.118;27.258;2023-06-05T12:55:40;3.15;;;1.38;;
6564;SDS011;3316;44.118;27.258;2023-06-05T12:58:06;7.97;;;2.25;;
6564;SDS011;3316;44.118;27.258;2023-06-05T13:00:31;6.75;;;2.17;;
6564;SDS011;3316;44.118;27.258;2023-06-05T13:02:57;4.35;;;1.67;;
6564;SDS011;3316;44.118;27.258;2023-06-05T13:05:22;10.23;;;2.40;;
6564;SDS011;3316;44.118;27.258;2023-06-05T13:07:48;1.42;;;1.30;;
6564;SDS011;3316;44.118;27.258;2023-06-05T13:10:16;7.13;;;1.70;;
6564;SDS011;3316;44.118;27.258;2023-06-05T13:12:42;2.22;;;1.33;;
6564;SDS011;3316;44.118;27.258;2023-06-05T13:15:08;7.57;;;1.80;;
6564;SDS011;3316;44.118;27.258;2023-06-05T13:17:34;3.95;;;1.45;;
6564;SDS011;3316;44.118;27.258;2023-06-05T13:20:02;5.90;;;2.25;;
6564;SDS011;3316;44.118;27.258;2023-06-05T13:22:31;6.00;;;2.00;;
6564;SDS011;3316;44.118;27.258;2023-06-05T13:24:57;2.58;;;1.60;;
6564;SDS011;3316;44.118;27.258;2023-06-05T13:27:22;7.07;;;1.80;;
6564;SDS011;3316;44.118;27.258;2023-06-05T13:29:48;3.65;;;1.73;;
6564;SDS011;3316;44.118;27.258;2023-06-05T13:32:13;3.00;;;1.65;;
6564;SDS011;3316;44.118;27.258;2023-06-05T13:34:39;3.30;;;1.60;;
6564;SDS011;3316;44.118;27.258;2023-06-05T13:37:04;2.22;;;1.70;;
6564;SDS011;3316;44.118;27.258;2023-06-05T13:39:30;3.38;;;1.90;;
6564;SDS011;3316;44.118;27.258;2023-06-05T13:41:55;2.60;;;1.95;;
6564;SDS011;3316;44.118;27.258;2023-06-05T13:44:21;3.47;;;1.80;;
6564;SDS011;3316;44.118;27.258;2023-06-05T13:46:46;4.80;;;1.77;;
6564;SDS011;3316;44.118;27.258;2023-06-05T13:49:12;2.05;;;1.45;;
6564;SDS011;3316;44.118;27.258;2023-06-05T13:51:37;3.45;;;1.58;;
6564;SDS011;3316;44.118;27.258;2023-06-05T13:54:03;3.05;;;1.67;;
6564;SDS011;3316;44.118;27.258;2023-06-05T13:56:29;1.40;;;1.30;;
6564;SDS011;3316;44.118;27.258;2023-06-05T13:58:55;2.08;;;1.58;;
6564;SDS011;3316;44.118;27.258;2023-06-05T14:01:22;3.10;;;1.73;;
6564;SDS011;3316;44.118;27.258;2023-06-05T14:03:47;3.22;;;1.50;;
6564;SDS011;3316;44.118;27.258;2023-06-05T14:06:13;4.53;;;1.90;;
6564;SDS011;3316;44.118;27.258;2023-06-05T14:08:39;2.60;;;1.33;;
6564;SDS011;3316;44.118;27.258;2023-06-05T14:11:04;5.07;;;1.63;;
6564;SDS011;3316;44.118;27.258;2023-06-05T14:13:30;2.15;;;1.40;;
6564;SDS011;3316;44.118;27.258;2023-06-05T14:15:55;3.83;;;1.70;;
6564;SDS011;3316;44.118;27.258;2023-06-05T14:18:21;1.70;;;1.42;;
6564;SDS011;3316;44.118;27.258;2023-06-05T14:20:46;6.60;;;1.60;;
6564;SDS011;3316;44.118;27.258;2023-06-05T14:23:12;1.85;;;1.48;;
6564;SDS011;3316;44.118;27.258;2023-06-05T14:25:37;1.85;;;1.70;;
6564;SDS011;3316;44.118;27.258;2023-06-05T14:28:03;2.30;;;1.50;;
6564;SDS011;3316;44.118;27.258;2023-06-05T14:30:28;2.25;;;1.60;;
6564;SDS011;3316;44.118;27.258;2023-06-05T14:32:54;2.65;;;1.50;;
6564;SDS011;3316;44.118;27.258;2023-06-05T14:35:20;3.65;;;1.75;;
6564;SDS011;3316;44.118;27.258;2023-06-05T14:37:47;3.17;;;1.45;;
6564;SDS011;3316;44.118;27.258;2023-06-05T14:40:13;4.63;;;1.80;;
6564;SDS011;3316;44.118;27.258;2023-06-05T14:42:39;3.78;;;1.88;;
6564;SDS011;3316;44.118;27.258;2023-06-05T14:45:04;2.67;;;1.25;;
6564;SDS011;3316;44.118;27.258;2023-06-05T14:47:30;2.65;;;1.45;;
6564;SDS011;3316;44.118;27.258;2023-06-05T14:49:56;6.40;;;1.88;;
6564;SDS011;3316;44.118;27.258;2023-06-05T14:52:21;5.05;;;1.50;;
6564;SDS011;3316;44.118;27.258;2023-06-05T14:54:47;3.50;;;1.40;;
6564;SDS011;3316;44.118;27.258;2023-06-05T14:57:12;5.30;;;1.70;;
6564;SDS011;3316;44.118;27.258;2023-06-05T14:59:38;2.40;;;1.50;;
6564;SDS011;3316;44.118;27.258;2023-06-05T15:02:03;4.05;;;1.45;;
6564;SDS011;3316;44.118;27.258;2023-06-05T15:04:29;3.42;;;1.65;;
6564;SDS011;3316;44.118;27.258;2023-06-05T15:06:55;5.93;;;2.63;;
6564;SDS011;3316;44.118;27.258;2023-06-05T15:09:21;10.48;;;1.50;;
6564;SDS011;3316;44.118;27.258;2023-06-05T15:11:47;4.97;;;1.40;;
6564;SDS011;3316;44.118;27.258;2023-06-05T15:14:13;2.70;;;1.50;;
6564;SDS011;3316;44.118;27.258;2023-06-05T15:16:39;3.10;;;1.60;;
6564;SDS011;3316;44.118;27.258;2023-06-05T15:19:05;2.63;;;1.80;;
6564;SDS011;3316;44.118;27.258;2023-06-05T15:21:30;2.38;;;1.48;;
6564;SDS011;3316;44.118;27.258;2023-06-05T15:23:55;1.65;;;1.40;;
6564;SDS011;3316;44.118;27.258;2023-06-05T15:26:21;2.53;;;1.50;;
6564;SDS011;3316;44.118;27.258;2023-06-05T15:28:47;1.50;;;1.30;;
6564;SDS011;3316;44.118;27.258;2023-06-05T15:31:13;5.82;;;2.20;;
6564;SDS011;3316;44.118;27.258;2023-06-05T15:33:38;3.45;;;1.70;;
6564;SDS011;3316;44.118;27.258;2023-06-05T15:36:04;3.47;;;1.70;;
6564;SDS011;3316;44.118;27.258;2023-06-05T15:38:30;3.17;;;1.35;;